Welcome to our Virtual Airline
Sign-in:

Flight MFC94841

  • Submitted By: Thomas Menzel
  • Departure Airport: Yes Bay Lodge SPB (78K)
  • Arrival Airport: Bell Island Hot Springs (KBE)
  • Aircraft: CESSNA 172 (N172MM)
  • Flight Time: 00.13.36
  • Date Submitted: 22/06/24
  • Route: STOP BPC1
  • Status: Accepted
Flight Details
Gross Revenue:
(3 load / $ 11.00 per unit
$ 33.00
Fuel Cost:
(3.17515 fuel used @ 5.1 / unit)
$ 16.19

Additional Log Information:

View Log

[19:04] ----- Flight Opened -----
[19:04] Cigar Box - 1.1.4.0
[19:04] FS: Prepar3D V4
[19:04] FSUIPC: v6
[19:04] Flight Number: MFC94841
[19:04] FS Aircraft: C172N Skyhawk on floats Rustygreen
[19:04] FS Model: C172N
[19:04] FS Type: Cessna
[19:04] Departure: 78K
[19:04] Arrival: KBE
[19:04] Flight Level: 4500
[19:04] Flight Type: H
[19:04] Passengers: 3
[19:04] FOB: 215 lbs
[19:04] Gate: 4 - YBL1
[19:04] NOTE: Parking Brake Ignored
[19:04] Crash Detection: Disabled
[19:04] Engines: 1 Piston
[19:04] NOTE: Boarding has started
[19:04] Autopilot: Engaged
[19:04] AGL: 3 ft
[19:04] AMSL: 3 ft
[19:04] Light Data: Navigation ON
[19:04] Light Data: Beacon ON
[19:04] Light Data: Landing lights ON
[19:04] Main Door Closed
[19:04] COM1: 122.50
[19:04] COM2: 136.00
[19:04] Transponder: 7000
[19:04] NAV1: 109.30
[19:04] NAV2: 108.40
[19:04] ADF1: 384.5
[19:04] ADF2: 240.0
[19:04] Navigation Mode: NAV
[19:04] Engine 1: Started
[19:05] Light Data: Taxi lights ON
[19:05] Light Data: Landing lights OFF
[19:05] Light Data: Landing lights ON
[19:05] NOTE: Taxi started
[19:06] Flaps: Position 1
[19:07] Autopilot: Disengaged
[19:07] AGL: 3 ft
[19:07] AMSL: 3 ft
[19:07] NOTE: ----- TAKE OFF -----
[19:07] GS: 66 knots
[19:07] TAS: 69 knots
[19:07] IAS: 70 knots
[19:07] VS: 48 fpm
[19:07] FOB: 215 lbs
[19:07] Heading: 306°
[19:07] Pitch: 10°
[19:07] Bank: 0°
[19:07] Aircraft Weight: 2164.23 lbs
[19:07] Nearest Airport: 78K
[19:07] Distance: 0.28 miles
[19:07] Runway: ???
[19:07] Ground Surface: Water
[19:07] Ground Condition: Normal
[19:07] NOTE: Weather Report
[19:07] Wind Heading: 317°
[19:07] Wind Speed: 3 knots
[19:07] OAT: 12° C
[19:07] TAT: 13° C
[19:07] Precipitation: None
[19:07] Dew Point: 10° C
[19:07] Visibility: 50 miles
[19:07] METAR:
[19:07] NOTE: Climb started
[19:07] View Mode: Virtual Cockpit
[19:07] Flaps: Position 0
[19:07] GS: 48 knots
[19:07] TAS: 51 knots
[19:07] IAS: 51 knots
[19:07] VS: 1264 fpm
[19:07] Autopilot: Engaged
[19:07] AGL: 528 ft
[19:07] AMSL: 528 ft
[19:08] Autopilot: Disengaged
[19:08] AGL: 1069 ft
[19:08] AMSL: 1069 ft
[19:08] Autopilot: Engaged
[19:08] AGL: 1152 ft
[19:08] AMSL: 1217 ft
[19:08] Light Data: Landing lights OFF
[19:08] AGL: 1269 ft
[19:08] AMSL: 1269 ft
[19:10] Autopilot: Disengaged
[19:10] AGL: 1204 ft
[19:10] AMSL: 1204 ft
[19:10] Light Data: Landing lights ON
[19:10] AGL: 1161 ft
[19:10] AMSL: 1161 ft
[19:11] Flaps: Position 1
[19:11] GS: 93 knots
[19:11] TAS: 95 knots
[19:11] IAS: 96 knots
[19:11] VS: -526 fpm
[19:11] Flaps: Position 2
[19:11] GS: 89 knots
[19:11] TAS: 91 knots
[19:11] IAS: 92 knots
[19:11] VS: -315 fpm
[19:11] Flaps: Position 3
[19:11] GS: 77 knots
[19:11] TAS: 78 knots
[19:11] IAS: 79 knots
[19:11] VS: -388 fpm
[19:11] NOTE: ----- LANDED -----
[19:11] Landing Rate: -61.52 fpm
[19:11] GS: 54 knots
[19:11] TAS: 56 knots
[19:11] IAS: 57 knots
[19:11] VS: -61 fpm
[19:11] FOB: 211 lbs
[19:11] Heading: 47°
[19:11] Pitch: 4°
[19:11] Bank: 5°
[19:11] Aircraft Weight: 2160.95 lbs
[19:11] Nearest Airport: BPC1
[19:11] Distance: 0.15 miles
[19:11] Runway: ???
[19:11] Ground Surface: Water
[19:11] Ground Condition: Normal
[19:11] NOTE: Weather Report
[19:11] Wind Heading: 315°
[19:11] Wind Speed: 3 knots
[19:11] OAT: 12° C
[19:11] TAT: 13° C
[19:11] Precipitation: None
[19:11] Dew Point: 9° C
[19:11] Visibility: 50 miles
[19:11] METAR: KBED 241651Z 31007KT 10SM BKN042 26/15 A2997 RMK AO2 SLP161 T02560150 KBEA 241655Z AUTO 16006G15KT 10SM CLR 33/18 A2995 RMK AO2 T03280180 KBEH 241653Z AUTO 00000KT 10SM CLR 29/13 A3007 RMK AO2 SLP180 T02890128 KBEC 241655Z AUTO 16013G16KT 10SM CLR 31/21 A2985 RMK AO2 LTG DSNT W T03130210
[19:11] View Mode: Virtual Cockpit
[19:11] NOTE: Taxi started
[19:12] Flaps: Position 0
[19:13] Light Data: Landing lights OFF
[19:13] Light Data: Landing lights ON
[19:13] Slew Mode: Activated
[19:13] Slew Mode: Deactivated
[19:14] Slew Mode: Activated
[19:14] Slew Mode: Deactivated
[19:14] Flaps: Position 1
[19:14] Flaps: Position 0
[19:14] GS: 75 knots
[19:14] TAS: 75 knots
[19:14] IAS: 76 knots
[19:14] VS: 1005 fpm
[19:15] View Mode: Spot Plane
[19:16] Flaps: Position 1
[19:16] GS: 83 knots
[19:16] TAS: 85 knots
[19:16] IAS: 86 knots
[19:16] VS: -80 fpm
[19:16] Flaps: Position 2
[19:16] GS: 79 knots
[19:16] TAS: 81 knots
[19:16] IAS: 82 knots
[19:16] VS: -141 fpm
[19:16] NOTE: ----- LANDED -----
[19:16] Landing Rate: -143.02 fpm
[19:16] GS: 48 knots
[19:16] TAS: 50 knots
[19:16] IAS: 50 knots
[19:16] VS: -141 fpm
[19:16] FOB: 209 lbs
[19:16] Heading: 21°
[19:16] Pitch: 8°
[19:16] Bank: -3°
[19:16] Aircraft Weight: 2158.26 lbs
[19:16] Nearest Airport: KBE
[19:16] Distance: 0.28 miles
[19:16] Runway: ???
[19:16] Ground Surface: Water
[19:16] Ground Condition: Normal
[19:16] NOTE: Weather Report
[19:16] Wind Heading: 316°
[19:16] Wind Speed: 3 knots
[19:16] OAT: 12° C
[19:16] TAT: 12° C
[19:16] Precipitation: None
[19:16] Dew Point: 9° C
[19:16] Visibility: 50 miles
[19:16] METAR: KBED 241651Z 31007KT 10SM BKN042 26/15 A2997 RMK AO2 SLP161 T02560150 KBEA 241655Z AUTO 16006G15KT 10SM CLR 33/18 A2995 RMK AO2 T03280180 KBEH 241653Z AUTO 00000KT 10SM CLR 29/13 A3007 RMK AO2 SLP180 T02890128 KBEC 241655Z AUTO 16013G16KT 10SM CLR 31/21 A2985 RMK AO2 LTG DSNT W T03130210
[19:16] View Mode: Virtual Cockpit
[19:16] Flaps: Position 0
[19:18] Gate: n/a
[19:18] NOTE: Flight Completed
[19:18] FS Aircraft: C172N Skyhawk on floats Rustygreen
[19:18] FS Model: C172N
[19:18] FS Type: Cessna
[19:18] FOB: 208 lbs
[19:18] Fuel Used: 7 lbs
[19:18] Flight Time: 00:13:36
[19:18] Flight Time (Dawn): 00:00:00
[19:18] Flight Time (Day): 00:13:36
[19:18] Flight Time (Dusk): 00:00:00
[19:18] Flight Time (Night): 00:00:00
[19:18] Total Landings: 2
[19:18] MaxSim Rate: 1x
[19:18] Cigar Box - 1.1.4.0
[19:18] ----- Flight Closed -----

Route Map